createdAt,value
2022-09-04T00:04:39.640Z,101565.38
2022-09-04T00:10:04.394Z,101599.44
2022-09-04T00:15:17.751Z,101596.25
2022-09-04T00:20:18.518Z,101605.50
2022-09-04T00:25:18.916Z,101609.69
2022-09-04T00:30:22.483Z,101597.59
2022-09-04T00:35:34.828Z,101602.84
2022-09-04T00:40:47.639Z,101605.25
2022-09-04T00:46:24.653Z,101608.44
2022-09-04T00:51:40.547Z,101611.22
2022-09-04T00:57:03.278Z,101624.72
2022-09-04T01:02:25.734Z,101607.63
2022-09-04T01:07:50.245Z,101645.19
2022-09-04T01:13:05.168Z,101629.25
2022-09-04T01:18:08.881Z,101614.50
2022-09-04T01:23:41.928Z,101651.84
2022-09-04T01:28:52.413Z,101655.34
2022-09-04T01:34:16.416Z,101651.63
2022-09-04T01:39:17.159Z,101631.91
2022-09-04T01:44:15.144Z,101626.75
2022-09-04T01:49:41.498Z,101646.22
2022-09-04T01:55:12.662Z,101637.50
2022-09-04T02:00:19.523Z,101648.13
2022-09-04T02:05:28.984Z,101640.28
2022-09-04T02:10:45.762Z,101675.69
2022-09-04T02:15:54.903Z,101636.69
2022-09-04T02:21:00.816Z,101642.78
2022-09-04T02:26:13.267Z,101677.38
2022-09-04T02:31:29.826Z,101671.38
2022-09-04T02:36:39.280Z,101652.22
2022-09-04T02:41:53.888Z,101642.34
2022-09-04T02:47:12.516Z,101658.16
2022-09-04T02:52:15.024Z,101649.41
2022-09-04T02:57:28.525Z,101644.03
2022-09-04T03:02:37.331Z,101644.69
2022-09-04T03:07:47.659Z,101637.34
2022-09-04T03:12:52.642Z,101642.22
2022-09-04T03:18:35.652Z,101642.34
2022-09-04T03:23:43.811Z,101658.75
2022-09-04T03:28:46.337Z,101632.50
2022-09-04T03:33:52.903Z,101632.47
2022-09-04T03:39:04.660Z,101671.06
2022-09-04T03:44:28.015Z,101662.81
2022-09-04T03:49:40.938Z,101670.09
2022-09-04T03:54:51.339Z,101673.97
2022-09-04T04:00:11.784Z,101655.34
2022-09-04T04:05:30.214Z,101680.97
2022-09-04T04:10:46.920Z,101666.19
2022-09-04T04:16:24.521Z,101696.84
2022-09-04T04:21:58.586Z,101690.16
2022-09-04T04:27:07.545Z,101660.00
2022-09-04T04:32:35.342Z,101679.34
2022-09-04T04:38:20.575Z,101668.44
2022-09-04T04:43:35.048Z,101661.16
2022-09-04T04:49:10.476Z,101697.56
2022-09-04T04:54:27.927Z,101701.59
2022-09-04T04:59:38.135Z,101702.31
2022-09-04T05:05:05.551Z,101692.78
2022-09-04T05:10:24.304Z,101717.91
2022-09-04T05:15:29.658Z,101730.72
2022-09-04T05:20:57.146Z,101726.09
2022-09-04T05:26:14.291Z,101739.69
2022-09-04T05:31:33.451Z,101710.22
2022-09-04T05:36:50.865Z,101749.69
2022-09-04T05:42:28.133Z,101760.22
2022-09-04T05:47:45.406Z,101756.16
2022-09-04T05:53:23.356Z,101769.94
2022-09-04T05:58:30.575Z,101773.81
2022-09-04T06:03:51.957Z,101784.13
2022-09-04T06:09:08.637Z,101788.44
2022-09-04T06:14:16.156Z,101795.28
2022-09-04T06:20:04.429Z,101796.66
2022-09-04T06:25:33.102Z,101799.66
2022-09-04T06:31:17.857Z,101762.81
2022-09-04T06:36:46.296Z,101766.44
2022-09-04T06:42:09.641Z,101805.84
2022-09-04T06:47:11.761Z,101807.22
2022-09-04T06:52:13.123Z,101812.22
2022-09-04T06:57:24.229Z,101801.50
2022-09-04T07:02:31.873Z,101817.19
2022-09-04T07:07:40.068Z,101816.31
2022-09-04T07:12:53.046Z,101815.75
2022-09-04T07:18:06.685Z,101812.22
2022-09-04T07:23:19.478Z,101808.56
2022-09-04T07:28:26.414Z,101803.28
2022-09-04T07:33:59.354Z,101781.09
2022-09-04T07:39:26.399Z,101789.44
2022-09-04T07:44:40.024Z,101786.81
2022-09-04T07:49:53.619Z,101770.19
2022-09-04T07:55:30.724Z,101792.19
2022-09-04T08:00:35.992Z,101753.09
2022-09-04T08:05:47.180Z,101760.13
2022-09-04T08:11:07.364Z,101775.91
2022-09-04T08:16:07.060Z,101779.25
2022-09-04T08:21:38.278Z,101783.75
2022-09-04T08:27:01.630Z,101787.50
2022-09-04T08:32:15.032Z,101775.19
2022-09-04T08:37:36.339Z,101765.91
2022-09-04T08:42:53.485Z,101783.19
2022-09-04T08:47:54.522Z,101782.84
2022-09-04T08:53:23.422Z,101800.97
2022-09-04T08:58:49.688Z,101796.72
2022-09-04T09:03:54.093Z,101803.81
2022-09-04T09:09:11.144Z,101796.44
2022-09-04T09:14:56.317Z,101786.94
2022-09-04T09:20:05.254Z,101793.06
2022-09-04T09:25:16.710Z,101800.97
2022-09-04T09:30:24.462Z,101783.91
2022-09-04T09:35:34.170Z,101801.59
2022-09-04T09:41:29.168Z,101791.38
2022-09-04T09:46:42.786Z,101800.81
2022-09-04T09:51:58.989Z,101819.34
2022-09-04T09:57:33.877Z,101773.47
2022-09-04T10:03:10.046Z,101794.66
2022-09-04T10:08:31.783Z,101793.22
2022-09-04T10:13:56.439Z,101791.84
2022-09-04T10:19:16.586Z,101790.22
2022-09-04T10:24:52.237Z,101765.97
2022-09-04T10:30:03.458Z,101759.16
2022-09-04T10:35:25.037Z,101781.09
2022-09-04T10:40:43.830Z,101790.31
2022-09-04T10:45:47.682Z,101804.09
2022-09-04T10:51:10.024Z,101778.16
2022-09-04T10:56:26.476Z,101781.94
2022-09-04T11:01:42.293Z,101790.16
2022-09-04T11:07:03.092Z,101808.31
2022-09-04T11:12:19.851Z,101793.59
2022-09-04T11:17:18.127Z,101770.88
2022-09-04T11:22:35.050Z,101760.41
2022-09-04T11:28:03.059Z,101786.41
2022-09-04T11:33:43.115Z,101767.66
2022-09-04T11:38:57.321Z,101771.78
2022-09-04T11:44:19.622Z,101761.41
2022-09-04T11:49:34.654Z,101754.19
2022-09-04T11:54:46.427Z,101725.41
2022-09-04T12:00:11.753Z,101749.34
2022-09-04T12:05:41.013Z,101750.66
2022-09-04T12:10:56.177Z,101745.38
2022-09-04T12:16:33.141Z,101728.06
2022-09-04T12:21:51.910Z,101716.91
2022-09-04T12:27:07.083Z,101743.53
2022-09-04T12:32:32.455Z,101743.88
2022-09-04T12:37:43.975Z,101753.34
2022-09-04T12:43:05.305Z,101768.03
2022-09-04T12:48:29.061Z,101710.19
2022-09-04T12:53:53.114Z,101693.88
2022-09-04T12:58:59.465Z,101707.19
2022-09-04T13:04:35.787Z,101732.53
2022-09-04T13:09:53.154Z,101751.19
2022-09-04T13:15:10.711Z,101712.69
2022-09-04T13:20:38.168Z,101726.09
2022-09-04T13:26:02.314Z,101698.97
2022-09-04T13:31:28.592Z,101736.03
2022-09-04T13:36:39.230Z,101728.75
2022-09-04T13:41:43.257Z,101747.34
2022-09-04T13:47:04.783Z,101712.66
2022-09-04T13:52:12.118Z,101731.13
2022-09-04T13:57:34.510Z,101739.00
2022-09-04T14:02:36.880Z,101699.84
2022-09-04T14:07:44.655Z,101714.91
2022-09-04T14:12:53.870Z,101751.44
2022-09-04T14:18:17.390Z,101723.53
2022-09-04T14:23:36.741Z,101752.00
2022-09-04T14:28:47.685Z,101765.66
2022-09-04T14:34:16.097Z,101718.19
2022-09-04T14:39:36.244Z,101755.56
2022-09-04T14:44:54.993Z,101739.56
2022-09-04T14:49:57.824Z,101731.16
2022-09-04T14:54:58.216Z,101717.75
2022-09-04T15:00:18.027Z,101723.53
2022-09-04T15:05:34.439Z,101725.50
2022-09-04T15:10:36.326Z,101744.06
2022-09-04T15:15:40.103Z,101729.91
2022-09-04T15:20:41.307Z,101705.59
2022-09-04T15:25:58.856Z,101753.22
2022-09-04T15:31:16.195Z,101723.94
2022-09-04T15:36:25.180Z,101720.34
2022-09-04T15:41:28.068Z,101742.31
2022-09-04T15:46:52.835Z,101720.06
2022-09-04T15:52:39.458Z,101744.97
2022-09-04T15:57:45.767Z,101731.69
2022-09-04T16:02:55.212Z,101717.06
2022-09-04T16:07:59.801Z,101716.38
2022-09-04T16:13:27.219Z,101723.19
2022-09-04T16:18:46.917Z,101718.69
2022-09-04T16:23:47.091Z,101709.53
2022-09-04T16:28:51.446Z,101691.66
2022-09-04T16:33:53.470Z,101722.22
2022-09-04T16:38:57.546Z,101700.66
2022-09-04T16:44:21.246Z,101733.28
2022-09-04T16:49:34.801Z,101723.94
2022-09-04T16:54:47.381Z,101714.75
2022-09-04T16:59:59.395Z,101730.66
2022-09-04T17:05:11.567Z,101731.69
2022-09-04T17:10:36.314Z,101726.78
2022-09-04T17:15:53.457Z,101742.31
2022-09-04T17:25:07.067Z,101737.41
2022-09-04T17:29:17.726Z,101746.78
2022-09-04T17:32:30.588Z,101743.09
2022-09-04T17:40:51.159Z,101749.41
2022-09-04T17:43:42.974Z,101768.00
2022-09-04T17:48:44.596Z,101758.81
2022-09-04T17:53:51.962Z,101764.50
2022-09-04T17:59:07.116Z,101778.16
2022-09-04T18:04:20.631Z,101813.84
2022-09-04T18:09:27.643Z,101765.34
2022-09-04T18:15:32.310Z,101818.34
2022-09-04T18:20:21.697Z,101825.47
2022-09-04T18:25:21.209Z,101826.91
2022-09-04T18:37:05.818Z,101830.81
2022-09-04T18:37:24.927Z,101806.28
2022-09-04T18:44:44.588Z,101813.03
2022-09-04T18:50:33.641Z,101850.75
2022-09-04T18:52:19.239Z,101805.41
2022-09-04T18:57:24.620Z,101846.44
2022-09-04T19:02:29.504Z,101844.19
2022-09-04T19:07:32.818Z,101856.78
2022-09-04T19:12:48.120Z,101840.34
2022-09-04T19:17:50.819Z,101821.00
2022-09-04T19:22:55.289Z,101821.47
2022-09-04T19:28:13.932Z,101833.22
2022-09-04T19:33:27.522Z,101831.75
2022-09-04T19:45:34.852Z,101846.78
2022-09-04T19:46:02.150Z,101848.38
2022-09-04T19:52:57.511Z,101842.38
2022-09-04T19:55:23.453Z,101821.84
2022-09-04T20:00:43.383Z,101854.63
2022-09-04T20:05:51.406Z,101832.28
2022-09-04T20:11:02.599Z,101862.47
2022-09-04T20:16:08.751Z,101836.28
2022-09-04T20:21:07.864Z,101871.69
2022-09-04T20:26:33.183Z,101854.41
2022-09-04T20:31:58.398Z,101861.50
2022-09-04T20:37:24.207Z,101827.28
2022-09-04T20:42:29.899Z,101834.75
2022-09-04T20:52:45.134Z,101815.22
2022-09-04T20:53:35.158Z,101867.84
2022-09-04T21:03:14.570Z,101847.03
2022-09-04T21:04:50.094Z,101861.53
2022-09-04T21:10:18.296Z,101872.00
2022-09-04T21:15:34.607Z,101869.72
2022-09-04T21:20:32.190Z,101865.34
2022-09-04T21:25:37.479Z,101840.06
2022-09-04T21:30:42.980Z,101840.63
2022-09-04T21:35:54.858Z,101862.22
2022-09-04T21:41:28.646Z,101851.44
2022-09-04T21:46:30.380Z,101859.97
2022-09-04T21:51:47.401Z,101855.97
2022-09-04T22:00:50.297Z,101844.16
2022-09-04T22:02:55.728Z,101863.13
2022-09-04T22:13:34.623Z,101823.66
2022-09-04T22:13:54.486Z,101867.16
2022-09-04T22:19:16.473Z,101862.00
2022-09-04T22:25:09.428Z,101842.63
2022-09-04T22:30:11.953Z,101821.84
2022-09-04T22:35:42.717Z,101855.34
2022-09-04T22:41:06.226Z,101863.63
2022-09-04T22:46:08.557Z,101861.59
2022-09-04T22:51:43.010Z,101840.75
2022-09-04T22:56:59.362Z,101830.19
2022-09-04T23:02:54.238Z,101850.84
2022-09-04T23:13:45.048Z,101851.06
2022-09-04T23:14:17.456Z,101854.81
2022-09-04T23:26:36.460Z,101844.34
2022-09-04T23:26:44.475Z,101846.50
2022-09-04T23:31:10.213Z,101815.38
2022-09-04T23:36:42.343Z,101845.50
2022-09-04T23:42:02.082Z,101847.41
2022-09-04T23:47:10.095Z,101842.34
2022-09-04T23:53:06.072Z,101858.41
2022-09-04T23:58:47.155Z,101831.41
